createdAt,value
2019-01-06T00:00:14.629Z,9.50
2019-01-06T00:03:04.552Z,9.50
2019-01-06T00:05:51.591Z,9.50
2019-01-06T00:08:44.309Z,9.40
2019-01-06T00:11:29.617Z,9.40
2019-01-06T00:14:32.579Z,9.40
2019-01-06T00:17:19.685Z,9.40
2019-01-06T00:20:19.529Z,9.40
2019-01-06T00:23:20.883Z,9.40
2019-01-06T00:26:11.124Z,9.40
2019-01-06T00:29:11.534Z,9.40
2019-01-06T00:32:11.101Z,9.40
2019-01-06T00:34:57.578Z,9.40
2019-01-06T00:37:57.686Z,9.40
2019-01-06T00:40:37.634Z,9.40
2019-01-06T00:43:24.313Z,9.40
2019-01-06T00:46:12.134Z,9.40
2019-01-06T00:48:59.533Z,9.40
2019-01-06T00:51:46.618Z,9.40
2019-01-06T00:54:33.369Z,9.40
2019-01-06T00:57:25.317Z,9.40
2019-01-06T01:00:12.641Z,9.40
2019-01-06T01:02:59.629Z,9.40
2019-01-06T01:06:01.497Z,9.40
2019-01-06T01:08:55.821Z,9.40
2019-01-06T01:11:46.172Z,9.40
2019-01-06T01:14:46.685Z,9.40
2019-01-06T01:17:52.765Z,9.40
2019-01-06T01:20:36.885Z,9.40
2019-01-06T01:23:21.996Z,9.40
2019-01-06T01:26:10.630Z,9.40
2019-01-06T01:28:54.838Z,9.40
2019-01-06T01:31:41.877Z,9.40
2019-01-06T01:34:26.320Z,9.40
2019-01-06T01:37:32.678Z,9.40
2019-01-06T01:40:13.101Z,9.40
2019-01-06T01:43:09.398Z,9.40
2019-01-06T01:45:51.019Z,9.40
2019-01-06T01:48:38.061Z,9.40
2019-01-06T01:51:24.349Z,9.40
2019-01-06T01:54:04.229Z,9.40
2019-01-06T01:57:01.257Z,9.40
2019-01-06T01:59:58.917Z,9.40
2019-01-06T02:02:47.188Z,9.40
2019-01-06T02:05:34.322Z,9.40
2019-01-06T02:08:25.423Z,9.40
2019-01-06T02:11:09.649Z,9.40
2019-01-06T02:13:46.611Z,9.40
2019-01-06T02:16:33.697Z,9.50
2019-01-06T02:19:14.297Z,9.40
2019-01-06T02:22:00.873Z,9.50
2019-01-06T02:24:53.030Z,9.50
2019-01-06T02:27:50.257Z,9.50
2019-01-06T02:30:38.092Z,9.50
2019-01-06T02:33:22.090Z,9.50
2019-01-06T02:36:08.672Z,9.50
2019-01-06T02:39:12.251Z,9.50
2019-01-06T02:42:09.046Z,9.50
2019-01-06T02:44:51.347Z,9.50
2019-01-06T02:47:40.340Z,9.50
2019-01-06T02:50:33.414Z,9.50
2019-01-06T02:53:15.686Z,9.50
2019-01-06T02:56:02.153Z,9.50
2019-01-06T02:58:48.791Z,9.50
2019-01-06T03:01:35.757Z,9.50
2019-01-06T03:04:26.586Z,9.50
2019-01-06T03:07:19.353Z,9.50
2019-01-06T03:10:06.077Z,9.50
2019-01-06T03:12:55.719Z,9.50
2019-01-06T03:15:32.501Z,9.50
2019-01-06T03:18:26.327Z,9.50
2019-01-06T03:21:13.509Z,9.50
2019-01-06T03:24:00.113Z,9.50
2019-01-06T03:26:53.229Z,9.40
2019-01-06T03:29:39.804Z,9.40
2019-01-06T03:32:21.264Z,9.40
2019-01-06T03:35:21.233Z,9.40
2019-01-06T03:38:11.867Z,9.40
2019-01-06T03:41:05.720Z,9.40
2019-01-06T03:43:52.521Z,9.30
2019-01-06T03:46:39.640Z,9.30
2019-01-06T03:49:26.697Z,9.30
2019-01-06T03:52:07.584Z,9.30
2019-01-06T03:55:01.513Z,9.30
2019-01-06T03:57:48.628Z,9.30
2019-01-06T04:00:35.730Z,9.30
2019-01-06T04:03:31.986Z,9.30
2019-01-06T04:06:19.034Z,9.30
2019-01-06T04:09:10.209Z,9.30
2019-01-06T04:11:56.781Z,9.30
2019-01-06T04:14:51.549Z,9.30
2019-01-06T04:17:39.503Z,9.30
2019-01-06T04:20:30.559Z,9.30
2019-01-06T04:23:17.001Z,9.30
2019-01-06T04:26:03.873Z,9.30
2019-01-06T04:29:06.601Z,9.30
2019-01-06T04:31:53.482Z,9.30
2019-01-06T04:34:38.492Z,9.20
2019-01-06T04:37:25.254Z,9.20
2019-01-06T04:40:04.930Z,9.20
2019-01-06T04:43:05.378Z,9.20
2019-01-06T04:45:49.827Z,9.20
2019-01-06T04:48:37.687Z,9.10
2019-01-06T04:51:37.189Z,9.20
2019-01-06T04:54:43.837Z,9.20
2019-01-06T04:57:37.995Z,9.10
2019-01-06T05:00:25.521Z,9.20
2019-01-06T05:03:12.309Z,9.20
2019-01-06T05:05:59.380Z,9.10
2019-01-06T05:08:52.529Z,9.10
2019-01-06T05:11:39.446Z,9.10
2019-01-06T05:14:36.657Z,9.10
2019-01-06T05:17:23.326Z,9.10
2019-01-06T05:20:10.167Z,9.20
2019-01-06T05:23:04.473Z,9.20
2019-01-06T05:25:51.026Z,9.20
2019-01-06T05:28:44.696Z,9.20
2019-01-06T05:31:50.982Z,9.20
2019-01-06T05:34:38.131Z,9.20
2019-01-06T05:37:25.010Z,9.20
2019-01-06T05:40:21.965Z,9.20
2019-01-06T05:43:18.909Z,9.30
2019-01-06T05:46:03.791Z,9.30
2019-01-06T05:48:50.571Z,9.30
2019-01-06T05:51:37.664Z,9.30
2019-01-06T05:54:24.064Z,9.30
2019-01-06T05:57:21.477Z,9.30
2019-01-06T06:00:13.953Z,9.30
2019-01-06T06:03:13.018Z,9.30
2019-01-06T06:06:03.089Z,9.30
2019-01-06T06:08:53.434Z,9.30
2019-01-06T06:11:40.278Z,9.30
2019-01-06T06:14:35.815Z,9.30
2019-01-06T06:17:20.425Z,9.30
2019-01-06T06:20:12.197Z,9.30
2019-01-06T06:23:00.088Z,9.30
2019-01-06T06:25:50.929Z,9.30
2019-01-06T06:28:37.866Z,9.30
2019-01-06T06:31:27.953Z,9.30
2019-01-06T06:34:14.637Z,9.30
2019-01-06T06:37:01.833Z,9.30
2019-01-06T06:39:48.709Z,9.30
2019-01-06T06:42:30.337Z,9.30
2019-01-06T06:45:20.719Z,9.30
2019-01-06T06:48:08.874Z,9.30
2019-01-06T06:51:06.978Z,9.30
2019-01-06T06:53:51.177Z,9.30
2019-01-06T06:56:38.157Z,9.30
2019-01-06T06:59:17.363Z,9.30
2019-01-06T07:03:00.978Z,9.30
2019-01-06T07:05:47.703Z,9.20
2019-01-06T07:08:48.117Z,9.20
2019-01-06T07:11:34.489Z,9.20
2019-01-06T07:14:26.195Z,9.10
2019-01-06T07:17:49.337Z,9.10
2019-01-06T07:20:43.918Z,9.10
2019-01-06T07:23:41.112Z,9.00
2019-01-06T07:26:22.642Z,9.00
2019-01-06T07:29:11.409Z,9.00
2019-01-06T07:32:14.606Z,9.00
2019-01-06T07:35:01.304Z,9.00
2019-01-06T07:37:51.949Z,9.00
2019-01-06T07:40:51.850Z,9.00
2019-01-06T07:43:33.343Z,9.00
2019-01-06T07:46:33.633Z,9.00
2019-01-06T07:49:17.214Z,9.00
2019-01-06T07:52:04.392Z,9.00
2019-01-06T07:54:46.736Z,9.00
2019-01-06T07:57:43.990Z,9.00
2019-01-06T08:00:39.306Z,9.00
2019-01-06T08:03:25.933Z,9.10
2019-01-06T08:06:12.789Z,9.10
2019-01-06T08:08:59.745Z,9.10
2019-01-06T08:11:48.209Z,9.10
2019-01-06T08:14:35.250Z,9.10
2019-01-06T08:17:26.091Z,9.10
2019-01-06T08:20:15.969Z,9.10
2019-01-06T08:23:06.954Z,9.10
2019-01-06T08:25:52.393Z,9.10
2019-01-06T08:28:41.359Z,9.10
2019-01-06T08:31:21.629Z,9.10
2019-01-06T08:34:17.126Z,9.10
2019-01-06T08:37:14.677Z,9.10
2019-01-06T08:40:05.789Z,9.10
2019-01-06T08:43:06.035Z,9.10
2019-01-06T08:45:58.869Z,9.10
2019-01-06T08:48:45.689Z,9.10
2019-01-06T08:51:44.006Z,9.00
2019-01-06T08:54:43.699Z,9.00
2019-01-06T08:57:30.365Z,9.00
2019-01-06T09:00:13.433Z,8.90
2019-01-06T09:02:59.898Z,8.90
2019-01-06T09:05:48.334Z,8.90
2019-01-06T09:08:32.393Z,8.90
2019-01-06T09:11:26.045Z,8.90
2019-01-06T09:14:20.021Z,8.90
2019-01-06T09:17:20.275Z,8.90
2019-01-06T09:20:27.228Z,8.90
2019-01-06T09:23:15.185Z,8.90
2019-01-06T09:26:01.522Z,8.90
2019-01-06T09:28:46.001Z,9.00
2019-01-06T09:31:39.360Z,9.00
2019-01-06T09:34:42.718Z,9.00
2019-01-06T09:37:33.161Z,9.10
2019-01-06T09:40:20.032Z,9.10
2019-01-06T09:43:01.593Z,9.20
2019-01-06T09:45:48.495Z,9.20
2019-01-06T09:48:45.456Z,9.30
2019-01-06T09:51:46.109Z,9.40
2019-01-06T09:54:52.452Z,9.40
2019-01-06T09:57:33.350Z,9.50
2019-01-06T10:00:27.286Z,9.60
2019-01-06T10:03:13.918Z,9.60
2019-01-06T10:06:20.181Z,9.70
2019-01-06T10:09:06.461Z,9.70
2019-01-06T10:11:53.180Z,9.80
2019-01-06T10:14:34.088Z,9.80
2019-01-06T10:17:21.073Z,9.80
2019-01-06T10:20:08.160Z,9.90
2019-01-06T10:23:08.126Z,9.90
2019-01-06T10:25:58.959Z,9.80
2019-01-06T10:28:47.166Z,9.90
2019-01-06T10:31:38.658Z,9.90
2019-01-06T10:34:34.817Z,9.90
2019-01-06T10:37:21.605Z,9.90
2019-01-06T10:40:08.329Z,9.90
2019-01-06T10:42:55.625Z,9.90
2019-01-06T10:46:01.769Z,10.00
2019-01-06T10:48:51.653Z,10.00
2019-01-06T10:51:37.898Z,10.00
2019-01-06T10:54:24.489Z,10.10
2019-01-06T10:57:15.411Z,10.10
2019-01-06T11:00:01.883Z,10.10
2019-01-06T11:03:07.998Z,10.20
2019-01-06T11:05:54.929Z,10.20
2019-01-06T11:08:41.053Z,10.20
2019-01-06T11:11:38.074Z,10.30
2019-01-06T11:14:32.056Z,10.30
2019-01-06T11:17:35.569Z,10.40
2019-01-06T11:20:22.569Z,10.40
2019-01-06T11:23:09.479Z,10.40
2019-01-06T11:25:57.501Z,10.40
2019-01-06T11:28:49.042Z,10.40
2019-01-06T11:31:35.834Z,10.40
2019-01-06T11:34:42.220Z,10.40
2019-01-06T11:37:32.904Z,10.30
2019-01-06T11:40:19.322Z,10.40
2019-01-06T11:43:13.058Z,10.30
2019-01-06T11:45:55.770Z,10.30
2019-01-06T11:48:55.922Z,10.30
2019-01-06T11:51:35.645Z,10.30
2019-01-06T11:54:34.767Z,10.40
2019-01-06T11:57:21.505Z,10.40
2019-01-06T12:00:18.601Z,10.40
2019-01-06T12:03:06.872Z,10.50
2019-01-06T12:05:49.725Z,10.60
2019-01-06T12:08:31.754Z,10.60
2019-01-06T12:11:19.601Z,10.70
2019-01-06T12:14:22.873Z,10.80
2019-01-06T12:17:20.743Z,10.90
2019-01-06T12:20:08.746Z,11.00
2019-01-06T12:22:55.815Z,11.10
2019-01-06T12:25:51.141Z,11.10
2019-01-06T12:28:38.217Z,11.20
2019-01-06T12:31:28.877Z,11.20
2019-01-06T12:34:25.769Z,11.30
2019-01-06T12:37:12.854Z,11.20
2019-01-06T12:40:00.679Z,11.30
2019-01-06T12:43:03.913Z,11.20
2019-01-06T12:45:55.441Z,11.20
2019-01-06T12:48:58.631Z,11.20
2019-01-06T12:51:45.221Z,11.20
2019-01-06T12:54:36.661Z,11.10
2019-01-06T12:57:36.024Z,11.10
2019-01-06T13:00:23.257Z,11.10
2019-01-06T13:03:29.583Z,11.10
2019-01-06T13:06:16.557Z,11.10
2019-01-06T13:09:03.233Z,11.10
2019-01-06T13:11:50.846Z,11.10
2019-01-06T13:14:37.755Z,11.10
2019-01-06T13:17:20.485Z,11.10
2019-01-06T13:20:07.370Z,11.10
2019-01-06T13:23:04.533Z,11.10
2019-01-06T13:25:46.621Z,11.10
2019-01-06T13:28:36.212Z,11.10
2019-01-06T13:31:31.289Z,11.10
2019-01-06T13:34:13.834Z,11.10
2019-01-06T13:37:01.689Z,11.10
2019-01-06T13:39:58.817Z,11.10
2019-01-06T13:42:45.274Z,11.10
2019-01-06T13:45:39.337Z,11.10
2019-01-06T13:48:27.141Z,11.10
2019-01-06T13:51:16.900Z,11.00
2019-01-06T13:54:04.885Z,11.00
2019-01-06T13:56:51.746Z,11.10
2019-01-06T13:59:45.775Z,11.10
2019-01-06T14:02:32.301Z,11.10
2019-01-06T14:05:29.229Z,11.10
2019-01-06T14:08:16.042Z,11.10
2019-01-06T14:11:15.809Z,11.10
2019-01-06T14:14:02.245Z,11.10
2019-01-06T14:16:59.217Z,11.00
2019-01-06T14:19:49.932Z,11.00
2019-01-06T14:22:40.734Z,11.00
2019-01-06T14:25:28.653Z,11.00
2019-01-06T14:28:16.465Z,11.00
2019-01-06T14:31:07.574Z,11.00
2019-01-06T14:33:59.842Z,11.00
2019-01-06T14:37:01.550Z,11.00
2019-01-06T14:39:48.021Z,11.00
2019-01-06T14:42:35.254Z,11.00
2019-01-06T14:45:18.491Z,11.00
2019-01-06T14:48:02.138Z,11.00
2019-01-06T14:50:47.717Z,11.00
2019-01-06T14:53:39.921Z,11.00
2019-01-06T14:56:29.022Z,11.00
2019-01-06T14:59:22.730Z,11.00
2019-01-06T15:02:11.362Z,10.90
2019-01-06T15:05:12.794Z,10.90
2019-01-06T15:08:12.377Z,10.90
2019-01-06T15:10:59.278Z,10.90
2019-01-06T15:13:56.245Z,10.90
2019-01-06T15:16:42.806Z,10.90
2019-01-06T15:19:31.201Z,10.90
2019-01-06T15:22:18.309Z,10.90
2019-01-06T15:25:21.673Z,10.90
2019-01-06T15:28:09.874Z,10.90
2019-01-06T15:31:06.433Z,10.90
2019-01-06T15:33:57.280Z,10.90
2019-01-06T15:36:58.907Z,10.90
2019-01-06T15:39:48.802Z,10.80
2019-01-06T15:42:42.965Z,10.90
2019-01-06T15:45:30.935Z,10.80
2019-01-06T15:48:21.305Z,10.80
2019-01-06T15:51:12.937Z,10.80
2019-01-06T15:54:11.273Z,10.80
2019-01-06T15:56:58.351Z,10.80
2019-01-06T15:59:58.476Z,10.80
2019-01-06T16:02:58.927Z,10.80
2019-01-06T16:06:02.073Z,10.70
2019-01-06T16:08:54.627Z,10.70
2019-01-06T16:11:40.476Z,10.70
2019-01-06T16:14:28.092Z,10.70
2019-01-06T16:17:18.214Z,10.70
2019-01-06T16:20:09.649Z,10.60
2019-01-06T16:23:15.677Z,10.70
2019-01-06T16:26:09.773Z,10.60
2019-01-06T16:29:09.810Z,10.60
2019-01-06T16:32:01.233Z,10.60
2019-01-06T16:34:55.218Z,10.60
2019-01-06T16:37:52.993Z,10.60
2019-01-06T16:40:35.589Z,10.60
2019-01-06T16:43:35.973Z,10.60
2019-01-06T16:46:25.383Z,10.50
2019-01-06T16:49:12.473Z,10.50
2019-01-06T16:52:15.813Z,10.50
2019-01-06T16:55:07.801Z,10.50
2019-01-06T16:57:49.825Z,10.50
2019-01-06T17:00:36.613Z,10.50
2019-01-06T17:03:23.483Z,10.50
2019-01-06T17:06:27.992Z,10.50
2019-01-06T17:09:14.791Z,10.50
2019-01-06T17:12:01.485Z,10.40
2019-01-06T17:14:41.649Z,10.40
2019-01-06T17:17:22.404Z,10.40
2019-01-06T17:20:09.357Z,10.40
2019-01-06T17:23:03.170Z,10.40
2019-01-06T17:26:03.784Z,10.40
2019-01-06T17:28:50.497Z,10.40
2019-01-06T17:31:37.272Z,10.40
2019-01-06T17:34:31.277Z,10.30
2019-01-06T17:37:19.143Z,10.30
2019-01-06T17:39:55.274Z,10.30
2019-01-06T17:42:46.589Z,10.30
2019-01-06T17:45:33.749Z,10.30
2019-01-06T17:48:29.292Z,10.30
2019-01-06T17:51:16.685Z,10.30
2019-01-06T17:54:24.166Z,10.30
2019-01-06T17:57:10.439Z,10.30
2019-01-06T18:00:04.130Z,10.30
2019-01-06T18:02:57.841Z,10.30
2019-01-06T18:05:43.240Z,10.30
2019-01-06T18:08:47.118Z,10.20
2019-01-06T18:11:34.221Z,10.30
2019-01-06T18:14:30.821Z,10.20
2019-01-06T18:17:30.765Z,10.20
2019-01-06T18:20:19.003Z,10.20
2019-01-06T18:23:25.342Z,10.20
2019-01-06T18:26:11.945Z,10.20
2019-01-06T18:28:51.689Z,10.20
2019-01-06T18:31:40.197Z,10.20
2019-01-06T18:34:37.405Z,10.20
2019-01-06T18:37:25.853Z,10.10
2019-01-06T18:40:12.541Z,10.10
2019-01-06T18:43:16.144Z,10.10
2019-01-06T18:45:58.053Z,10.10
2019-01-06T18:48:36.362Z,10.10
2019-01-06T18:51:27.538Z,10.10
2019-01-06T18:54:25.215Z,10.10
2019-01-06T18:57:11.227Z,10.10
2019-01-06T19:00:05.398Z,10.10
2019-01-06T19:02:52.173Z,10.10
2019-01-06T19:05:37.093Z,10.10
2019-01-06T19:08:24.154Z,10.10
2019-01-06T19:11:30.594Z,10.10
2019-01-06T19:14:17.211Z,10.10
2019-01-06T19:17:08.385Z,10.10
2019-01-06T19:20:11.409Z,10.10
2019-01-06T19:23:07.415Z,10.10
2019-01-06T19:26:03.291Z,10.10
2019-01-06T19:28:49.247Z,10.10
2019-01-06T19:31:49.253Z,10.00
2019-01-06T19:34:42.516Z,10.00
2019-01-06T19:37:29.166Z,10.10
2019-01-06T19:40:23.426Z,10.10
2019-01-06T19:43:10.021Z,10.10
2019-01-06T19:45:56.719Z,10.10
2019-01-06T19:48:43.681Z,10.10
2019-01-06T19:51:19.873Z,10.10
2019-01-06T19:54:07.829Z,10.10
2019-01-06T19:56:51.197Z,10.00
2019-01-06T19:59:45.028Z,10.10
2019-01-06T20:02:31.610Z,10.10
2019-01-06T20:05:28.602Z,10.10
2019-01-06T20:08:07.698Z,10.10
2019-01-06T20:10:55.526Z,10.10
2019-01-06T20:13:48.306Z,10.10
2019-01-06T20:16:36.121Z,10.00
2019-01-06T20:19:33.481Z,10.10
2019-01-06T20:22:33.745Z,10.00
2019-01-06T20:25:34.343Z,10.00
2019-01-06T20:28:21.061Z,10.00
2019-01-06T20:31:08.273Z,10.00
2019-01-06T20:34:04.436Z,10.00
2019-01-06T20:37:01.577Z,10.00
2019-01-06T20:39:46.057Z,10.00
2019-01-06T20:42:25.779Z,10.00
2019-01-06T20:45:12.785Z,9.90
2019-01-06T20:47:56.917Z,10.00
2019-01-06T20:50:43.557Z,10.00
2019-01-06T20:53:34.770Z,9.90
2019-01-06T20:56:21.682Z,9.90
2019-01-06T20:59:11.358Z,9.90
2019-01-06T21:02:12.601Z,9.90
2019-01-06T21:05:15.965Z,9.90
2019-01-06T21:08:05.084Z,9.90
2019-01-06T21:10:56.359Z,9.90
2019-01-06T21:13:44.216Z,9.90
2019-01-06T21:16:35.391Z,9.90
2019-01-06T21:19:18.469Z,9.90
2019-01-06T21:22:05.068Z,9.90
2019-01-06T21:25:02.289Z,9.90
2019-01-06T21:28:04.345Z,9.90
2019-01-06T21:30:51.291Z,9.90
2019-01-06T21:33:38.182Z,9.90
2019-01-06T21:36:32.101Z,9.90
2019-01-06T21:39:29.101Z,9.90
2019-01-06T21:42:22.926Z,9.90
2019-01-06T21:45:10.840Z,9.80
2019-01-06T21:47:57.833Z,9.80
2019-01-06T21:50:41.625Z,9.80
2019-01-06T21:53:26.077Z,9.80
2019-01-06T21:56:12.542Z,9.80
2019-01-06T21:58:59.261Z,9.80
2019-01-06T22:01:46.577Z,9.80
2019-01-06T22:04:33.989Z,9.80
2019-01-06T22:07:22.205Z,9.80
2019-01-06T22:10:09.289Z,9.80
2019-01-06T22:12:56.043Z,9.70
2019-01-06T22:15:46.825Z,9.70
2019-01-06T22:18:47.809Z,9.70
2019-01-06T22:21:50.805Z,9.60
2019-01-06T22:24:38.659Z,9.60
2019-01-06T22:27:20.877Z,9.50
2019-01-06T22:30:09.082Z,9.50
2019-01-06T22:32:55.743Z,9.40
2019-01-06T22:35:43.434Z,9.40
2019-01-06T22:38:30.126Z,9.30
2019-01-06T22:41:23.809Z,9.30
2019-01-06T22:44:10.321Z,9.20
2019-01-06T22:47:07.418Z,9.20
2019-01-06T22:49:53.828Z,9.10
2019-01-06T22:52:40.881Z,9.00
2019-01-06T22:55:31.945Z,9.00
2019-01-06T22:58:16.825Z,8.90
2019-01-06T23:01:13.657Z,8.90
2019-01-06T23:04:17.293Z,8.80
2019-01-06T23:07:10.350Z,8.80
2019-01-06T23:09:57.169Z,8.70
2019-01-06T23:12:43.919Z,8.70
2019-01-06T23:15:30.840Z,8.60
2019-01-06T23:18:21.888Z,8.60
2019-01-06T23:21:08.753Z,8.50
2019-01-06T23:24:13.310Z,8.50
2019-01-06T23:27:11.917Z,8.40
2019-01-06T23:30:09.109Z,8.30
2019-01-06T23:33:03.031Z,8.30
2019-01-06T23:35:59.761Z,8.20
2019-01-06T23:38:59.141Z,8.20
2019-01-06T23:41:45.934Z,8.10
2019-01-06T23:44:36.769Z,8.10
2019-01-06T23:47:19.661Z,8.00
2019-01-06T23:50:06.393Z,8.00
2019-01-06T23:53:06.962Z,7.90
2019-01-06T23:56:06.729Z,7.90
2019-01-06T23:59:00.755Z,7.90
